sensor_id;sensor_type;location;lat;lon;timestamp;P1;durP1;ratioP1;P2;durP2;ratioP2
18072;SDS011;9161;47.348;9.648;2023-03-07T00:03:24;14.50;;;7.23;;
18072;SDS011;9161;47.348;9.648;2023-03-07T00:08:26;16.17;;;7.07;;
18072;SDS011;9161;47.348;9.648;2023-03-07T00:13:29;16.60;;;7.37;;
18072;SDS011;9161;47.348;9.648;2023-03-07T00:18:35;18.73;;;7.60;;
18072;SDS011;9161;47.348;9.648;2023-03-07T00:23:39;19.47;;;7.97;;
18072;SDS011;9161;47.348;9.648;2023-03-07T00:28:42;18.27;;;8.20;;
18072;SDS011;9161;47.348;9.648;2023-03-07T00:33:48;21.33;;;8.23;;
18072;SDS011;9161;47.348;9.648;2023-03-07T00:38:50;20.47;;;7.80;;
18072;SDS011;9161;47.348;9.648;2023-03-07T00:43:53;17.93;;;7.90;;
18072;SDS011;9161;47.348;9.648;2023-03-07T00:48:57;18.93;;;7.20;;
18072;SDS011;9161;47.348;9.648;2023-03-07T00:54:00;16.13;;;7.53;;
18072;SDS011;9161;47.348;9.648;2023-03-07T00:59:03;15.43;;;7.50;;
18072;SDS011;9161;47.348;9.648;2023-03-07T01:04:06;14.60;;;7.50;;
18072;SDS011;9161;47.348;9.648;2023-03-07T01:09:09;17.70;;;7.37;;
18072;SDS011;9161;47.348;9.648;2023-03-07T01:14:12;16.50;;;7.50;;
18072;SDS011;9161;47.348;9.648;2023-03-07T01:19:15;19.30;;;8.33;;
18072;SDS011;9161;47.348;9.648;2023-03-07T01:24:18;19.17;;;8.10;;
18072;SDS011;9161;47.348;9.648;2023-03-07T01:29:20;17.80;;;7.80;;
18072;SDS011;9161;47.348;9.648;2023-03-07T01:34:24;19.67;;;8.40;;
18072;SDS011;9161;47.348;9.648;2023-03-07T01:39:28;16.13;;;7.50;;
18072;SDS011;9161;47.348;9.648;2023-03-07T01:44:30;17.53;;;7.07;;
18072;SDS011;9161;47.348;9.648;2023-03-07T01:50:00;17.47;;;7.17;;
18072;SDS011;9161;47.348;9.648;2023-03-07T01:55:07;16.10;;;7.97;;
18072;SDS011;9161;47.348;9.648;2023-03-07T02:00:16;18.40;;;7.53;;
18072;SDS011;9161;47.348;9.648;2023-03-07T02:05:30;16.27;;;7.90;;
18072;SDS011;9161;47.348;9.648;2023-03-07T02:10:37;19.07;;;7.73;;
18072;SDS011;9161;47.348;9.648;2023-03-07T02:15:41;17.73;;;7.83;;
18072;SDS011;9161;47.348;9.648;2023-03-07T02:20:45;20.20;;;7.97;;
18072;SDS011;9161;47.348;9.648;2023-03-07T02:25:55;19.00;;;8.20;;
18072;SDS011;9161;47.348;9.648;2023-03-07T02:31:05;16.13;;;7.77;;
18072;SDS011;9161;47.348;9.648;2023-03-07T02:36:09;18.30;;;7.83;;
18072;SDS011;9161;47.348;9.648;2023-03-07T02:41:15;17.40;;;7.87;;
18072;SDS011;9161;47.348;9.648;2023-03-07T02:46:22;19.53;;;7.80;;
18072;SDS011;9161;47.348;9.648;2023-03-07T02:51:24;19.80;;;7.47;;
18072;SDS011;9161;47.348;9.648;2023-03-07T02:56:27;16.60;;;7.80;;
18072;SDS011;9161;47.348;9.648;2023-03-07T03:01:31;18.53;;;8.20;;
18072;SDS011;9161;47.348;9.648;2023-03-07T03:06:34;18.63;;;8.03;;
18072;SDS011;9161;47.348;9.648;2023-03-07T03:11:36;18.77;;;7.63;;
18072;SDS011;9161;47.348;9.648;2023-03-07T03:16:40;23.20;;;8.37;;
18072;SDS011;9161;47.348;9.648;2023-03-07T03:21:42;17.90;;;8.17;;
18072;SDS011;9161;47.348;9.648;2023-03-07T03:26:44;18.97;;;8.00;;
18072;SDS011;9161;47.348;9.648;2023-03-07T03:31:48;17.93;;;7.57;;
18072;SDS011;9161;47.348;9.648;2023-03-07T03:36:50;20.13;;;8.57;;
18072;SDS011;9161;47.348;9.648;2023-03-07T03:41:53;19.43;;;9.23;;
18072;SDS011;9161;47.348;9.648;2023-03-07T03:46:57;22.90;;;9.20;;
18072;SDS011;9161;47.348;9.648;2023-03-07T03:52:00;19.73;;;8.60;;
18072;SDS011;9161;47.348;9.648;2023-03-07T03:57:02;21.97;;;9.10;;
18072;SDS011;9161;47.348;9.648;2023-03-07T04:02:06;26.23;;;9.93;;
18072;SDS011;9161;47.348;9.648;2023-03-07T04:07:08;25.67;;;10.17;;
18072;SDS011;9161;47.348;9.648;2023-03-07T04:12:10;21.00;;;8.83;;
18072;SDS011;9161;47.348;9.648;2023-03-07T04:17:13;23.53;;;8.93;;
18072;SDS011;9161;47.348;9.648;2023-03-07T04:22:15;25.57;;;9.60;;
18072;SDS011;9161;47.348;9.648;2023-03-07T04:27:17;21.77;;;9.07;;
18072;SDS011;9161;47.348;9.648;2023-03-07T04:32:20;22.80;;;8.97;;
18072;SDS011;9161;47.348;9.648;2023-03-07T04:37:23;21.50;;;10.77;;
18072;SDS011;9161;47.348;9.648;2023-03-07T04:42:25;21.40;;;8.93;;
18072;SDS011;9161;47.348;9.648;2023-03-07T04:47:28;26.53;;;9.03;;
18072;SDS011;9161;47.348;9.648;2023-03-07T04:52:31;23.73;;;9.70;;
18072;SDS011;9161;47.348;9.648;2023-03-07T04:57:34;18.20;;;8.27;;
18072;SDS011;9161;47.348;9.648;2023-03-07T05:02:38;19.40;;;8.47;;
18072;SDS011;9161;47.348;9.648;2023-03-07T05:07:40;23.33;;;8.57;;
18072;SDS011;9161;47.348;9.648;2023-03-07T05:12:42;21.33;;;9.07;;
18072;SDS011;9161;47.348;9.648;2023-03-07T05:17:46;19.00;;;8.33;;
18072;SDS011;9161;47.348;9.648;2023-03-07T05:22:48;23.27;;;9.70;;
18072;SDS011;9161;47.348;9.648;2023-03-07T05:27:50;26.57;;;9.80;;
18072;SDS011;9161;47.348;9.648;2023-03-07T05:32:54;24.60;;;9.77;;
18072;SDS011;9161;47.348;9.648;2023-03-07T05:37:56;25.70;;;10.10;;
18072;SDS011;9161;47.348;9.648;2023-03-07T05:42:59;23.87;;;9.30;;
18072;SDS011;9161;47.348;9.648;2023-03-07T05:48:03;19.13;;;8.57;;
18072;SDS011;9161;47.348;9.648;2023-03-07T05:53:05;20.93;;;9.60;;
18072;SDS011;9161;47.348;9.648;2023-03-07T05:58:09;19.60;;;9.10;;
18072;SDS011;9161;47.348;9.648;2023-03-07T06:03:28;24.07;;;9.90;;
18072;SDS011;9161;47.348;9.648;2023-03-07T06:08:35;27.33;;;10.10;;
18072;SDS011;9161;47.348;9.648;2023-03-07T06:13:41;25.73;;;10.13;;
18072;SDS011;9161;47.348;9.648;2023-03-07T06:18:45;23.83;;;9.73;;
18072;SDS011;9161;47.348;9.648;2023-03-07T06:23:47;24.73;;;9.90;;
18072;SDS011;9161;47.348;9.648;2023-03-07T06:28:49;28.67;;;9.50;;
18072;SDS011;9161;47.348;9.648;2023-03-07T06:33:53;21.73;;;9.13;;
18072;SDS011;9161;47.348;9.648;2023-03-07T06:38:56;22.17;;;9.80;;
18072;SDS011;9161;47.348;9.648;2023-03-07T06:43:59;29.20;;;9.67;;
18072;SDS011;9161;47.348;9.648;2023-03-07T06:49:02;27.23;;;10.57;;
18072;SDS011;9161;47.348;9.648;2023-03-07T06:54:04;26.20;;;9.77;;
18072;SDS011;9161;47.348;9.648;2023-03-07T06:59:06;24.70;;;9.80;;
18072;SDS011;9161;47.348;9.648;2023-03-07T07:04:11;21.03;;;9.77;;
18072;SDS011;9161;47.348;9.648;2023-03-07T07:09:13;22.53;;;10.90;;
18072;SDS011;9161;47.348;9.648;2023-03-07T07:14:15;22.50;;;9.97;;
18072;SDS011;9161;47.348;9.648;2023-03-07T07:19:19;34.93;;;10.80;;
18072;SDS011;9161;47.348;9.648;2023-03-07T07:24:22;30.30;;;11.33;;
18072;SDS011;9161;47.348;9.648;2023-03-07T07:29:24;32.63;;;11.27;;
18072;SDS011;9161;47.348;9.648;2023-03-07T07:34:27;35.10;;;12.20;;
18072;SDS011;9161;47.348;9.648;2023-03-07T07:39:30;27.67;;;10.63;;
18072;SDS011;9161;47.348;9.648;2023-03-07T07:44:33;29.20;;;11.23;;
18072;SDS011;9161;47.348;9.648;2023-03-07T07:49:36;28.47;;;11.03;;
18072;SDS011;9161;47.348;9.648;2023-03-07T07:54:38;43.60;;;14.80;;
18072;SDS011;9161;47.348;9.648;2023-03-07T07:59:40;38.27;;;13.23;;
18072;SDS011;9161;47.348;9.648;2023-03-07T08:04:44;28.63;;;12.47;;
18072;SDS011;9161;47.348;9.648;2023-03-07T08:09:46;30.90;;;12.50;;
18072;SDS011;9161;47.348;9.648;2023-03-07T08:14:48;29.87;;;11.37;;
18072;SDS011;9161;47.348;9.648;2023-03-07T08:19:51;26.90;;;10.37;;
18072;SDS011;9161;47.348;9.648;2023-03-07T08:24:53;24.67;;;10.70;;
18072;SDS011;9161;47.348;9.648;2023-03-07T08:29:55;26.50;;;10.93;;
18072;SDS011;9161;47.348;9.648;2023-03-07T08:34:59;27.60;;;12.03;;
18072;SDS011;9161;47.348;9.648;2023-03-07T08:40:03;22.87;;;10.20;;
18072;SDS011;9161;47.348;9.648;2023-03-07T08:45:06;28.83;;;10.40;;
18072;SDS011;9161;47.348;9.648;2023-03-07T08:50:11;25.90;;;10.60;;
18072;SDS011;9161;47.348;9.648;2023-03-07T08:55:13;24.50;;;10.53;;
18072;SDS011;9161;47.348;9.648;2023-03-07T09:00:16;21.53;;;11.00;;
18072;SDS011;9161;47.348;9.648;2023-03-07T09:05:20;34.07;;;12.20;;
18072;SDS011;9161;47.348;9.648;2023-03-07T09:10:23;34.47;;;11.50;;
18072;SDS011;9161;47.348;9.648;2023-03-07T09:15:26;21.37;;;9.70;;
18072;SDS011;9161;47.348;9.648;2023-03-07T09:20:30;24.57;;;8.90;;
18072;SDS011;9161;47.348;9.648;2023-03-07T09:25:32;20.67;;;8.63;;
18072;SDS011;9161;47.348;9.648;2023-03-07T09:30:35;17.90;;;8.97;;
18072;SDS011;9161;47.348;9.648;2023-03-07T09:35:39;17.63;;;8.93;;
18072;SDS011;9161;47.348;9.648;2023-03-07T09:40:42;20.23;;;9.37;;
18072;SDS011;9161;47.348;9.648;2023-03-07T09:45:50;20.00;;;10.10;;
18072;SDS011;9161;47.348;9.648;2023-03-07T09:51:02;24.77;;;11.37;;
18072;SDS011;9161;47.348;9.648;2023-03-07T09:56:14;19.47;;;10.03;;
18072;SDS011;9161;47.348;9.648;2023-03-07T10:01:23;22.50;;;11.07;;
18072;SDS011;9161;47.348;9.648;2023-03-07T10:06:31;20.67;;;11.13;;
18072;SDS011;9161;47.348;9.648;2023-03-07T10:11:49;23.87;;;12.07;;
18072;SDS011;9161;47.348;9.648;2023-03-07T10:17:10;22.43;;;11.87;;
18072;SDS011;9161;47.348;9.648;2023-03-07T10:22:20;27.27;;;12.97;;
18072;SDS011;9161;47.348;9.648;2023-03-07T10:27:29;24.53;;;12.63;;
18072;SDS011;9161;47.348;9.648;2023-03-07T10:32:33;24.97;;;12.20;;
18072;SDS011;9161;47.348;9.648;2023-03-07T10:37:44;22.87;;;12.00;;
18072;SDS011;9161;47.348;9.648;2023-03-07T10:42:51;20.67;;;11.82;;
18072;SDS011;9161;47.348;9.648;2023-03-07T10:47:54;22.05;;;12.15;;
18072;SDS011;9161;47.348;9.648;2023-03-07T10:53:00;22.95;;;12.98;;
18072;SDS011;9161;47.348;9.648;2023-03-07T10:58:11;20.85;;;12.35;;
18072;SDS011;9161;47.348;9.648;2023-03-07T11:03:22;20.45;;;12.55;;
18072;SDS011;9161;47.348;9.648;2023-03-07T11:08:30;20.05;;;10.80;;
18072;SDS011;9161;47.348;9.648;2023-03-07T11:13:33;15.43;;;9.43;;
18072;SDS011;9161;47.348;9.648;2023-03-07T11:18:37;19.63;;;11.52;;
18072;SDS011;9161;47.348;9.648;2023-03-07T11:23:43;17.27;;;11.43;;
18072;SDS011;9161;47.348;9.648;2023-03-07T11:29:04;19.92;;;10.95;;
18072;SDS011;9161;47.348;9.648;2023-03-07T11:34:11;22.42;;;11.18;;
18072;SDS011;9161;47.348;9.648;2023-03-07T11:39:28;19.02;;;10.43;;
18072;SDS011;9161;47.348;9.648;2023-03-07T11:44:38;17.63;;;11.05;;
18072;SDS011;9161;47.348;9.648;2023-03-07T11:49:52;16.73;;;10.32;;
18072;SDS011;9161;47.348;9.648;2023-03-07T11:55:10;20.33;;;11.00;;
18072;SDS011;9161;47.348;9.648;2023-03-07T12:00:25;17.20;;;10.50;;
18072;SDS011;9161;47.348;9.648;2023-03-07T12:05:35;19.42;;;10.07;;
18072;SDS011;9161;47.348;9.648;2023-03-07T12:10:50;16.65;;;9.75;;
18072;SDS011;9161;47.348;9.648;2023-03-07T12:16:03;16.75;;;9.52;;
18072;SDS011;9161;47.348;9.648;2023-03-07T12:21:19;18.50;;;9.88;;
18072;SDS011;9161;47.348;9.648;2023-03-07T12:26:34;15.65;;;9.70;;
18072;SDS011;9161;47.348;9.648;2023-03-07T12:31:44;14.80;;;9.73;;
18072;SDS011;9161;47.348;9.648;2023-03-07T12:36:52;19.90;;;9.95;;
18072;SDS011;9161;47.348;9.648;2023-03-07T12:42:00;14.15;;;8.77;;
18072;SDS011;9161;47.348;9.648;2023-03-07T12:47:09;18.27;;;9.57;;
18072;SDS011;9161;47.348;9.648;2023-03-07T12:52:21;15.88;;;9.57;;
18072;SDS011;9161;47.348;9.648;2023-03-07T12:57:33;14.50;;;8.57;;
18072;SDS011;9161;47.348;9.648;2023-03-07T13:02:42;15.40;;;8.75;;
18072;SDS011;9161;47.348;9.648;2023-03-07T13:07:48;13.77;;;7.82;;
18072;SDS011;9161;47.348;9.648;2023-03-07T13:12:52;13.80;;;8.50;;
18072;SDS011;9161;47.348;9.648;2023-03-07T13:17:56;13.52;;;8.52;;
18072;SDS011;9161;47.348;9.648;2023-03-07T13:22:59;16.17;;;9.02;;
18072;SDS011;9161;47.348;9.648;2023-03-07T13:28:34;14.82;;;8.88;;
18072;SDS011;9161;47.348;9.648;2023-03-07T13:33:38;18.85;;;9.55;;
18072;SDS011;9161;47.348;9.648;2023-03-07T13:38:41;13.82;;;8.80;;
18072;SDS011;9161;47.348;9.648;2023-03-07T13:43:56;15.40;;;8.15;;
18072;SDS011;9161;47.348;9.648;2023-03-07T13:49:01;14.88;;;8.73;;
18072;SDS011;9161;47.348;9.648;2023-03-07T13:54:04;14.13;;;8.50;;
18072;SDS011;9161;47.348;9.648;2023-03-07T13:59:17;16.77;;;8.73;;
18072;SDS011;9161;47.348;9.648;2023-03-07T14:04:24;18.92;;;9.75;;
18072;SDS011;9161;47.348;9.648;2023-03-07T14:09:39;17.00;;;8.55;;
18072;SDS011;9161;47.348;9.648;2023-03-07T14:14:52;17.73;;;9.13;;
18072;SDS011;9161;47.348;9.648;2023-03-07T14:20:07;17.30;;;8.63;;
18072;SDS011;9161;47.348;9.648;2023-03-07T14:25:20;30.85;;;9.63;;
18072;SDS011;9161;47.348;9.648;2023-03-07T14:30:26;13.23;;;8.18;;
18072;SDS011;9161;47.348;9.648;2023-03-07T14:35:34;15.48;;;8.45;;
18072;SDS011;9161;47.348;9.648;2023-03-07T14:40:41;15.77;;;8.77;;
18072;SDS011;9161;47.348;9.648;2023-03-07T14:45:56;17.63;;;9.48;;
18072;SDS011;9161;47.348;9.648;2023-03-07T14:51:12;16.87;;;8.90;;
18072;SDS011;9161;47.348;9.648;2023-03-07T14:56:18;17.57;;;9.13;;
18072;SDS011;9161;47.348;9.648;2023-03-07T15:01:26;16.93;;;8.93;;
18072;SDS011;9161;47.348;9.648;2023-03-07T15:06:40;21.07;;;9.23;;
18072;SDS011;9161;47.348;9.648;2023-03-07T15:11:43;21.90;;;9.37;;
18072;SDS011;9161;47.348;9.648;2023-03-07T15:16:54;20.70;;;9.10;;
18072;SDS011;9161;47.348;9.648;2023-03-07T15:22:03;16.27;;;8.33;;
18072;SDS011;9161;47.348;9.648;2023-03-07T15:27:08;19.03;;;8.23;;
18072;SDS011;9161;47.348;9.648;2023-03-07T15:32:29;17.87;;;8.87;;
18072;SDS011;9161;47.348;9.648;2023-03-07T15:37:51;20.20;;;8.80;;
18072;SDS011;9161;47.348;9.648;2023-03-07T15:42:56;20.53;;;8.83;;
18072;SDS011;9161;47.348;9.648;2023-03-07T15:48:17;18.50;;;8.50;;
18072;SDS011;9161;47.348;9.648;2023-03-07T15:53:26;17.87;;;8.63;;
18072;SDS011;9161;47.348;9.648;2023-03-07T15:58:32;17.30;;;7.50;;
18072;SDS011;9161;47.348;9.648;2023-03-07T16:03:46;21.97;;;9.07;;
18072;SDS011;9161;47.348;9.648;2023-03-07T16:08:50;17.07;;;8.87;;
18072;SDS011;9161;47.348;9.648;2023-03-07T16:13:52;15.77;;;7.23;;
18072;SDS011;9161;47.348;9.648;2023-03-07T16:18:56;16.47;;;7.53;;
18072;SDS011;9161;47.348;9.648;2023-03-07T16:23:59;17.53;;;7.83;;
18072;SDS011;9161;47.348;9.648;2023-03-07T16:29:02;20.30;;;8.43;;
18072;SDS011;9161;47.348;9.648;2023-03-07T16:34:09;23.60;;;8.80;;
18072;SDS011;9161;47.348;9.648;2023-03-07T16:39:16;30.53;;;8.80;;
18072;SDS011;9161;47.348;9.648;2023-03-07T16:44:19;18.40;;;8.47;;
18072;SDS011;9161;47.348;9.648;2023-03-07T16:49:24;18.10;;;8.43;;
18072;SDS011;9161;47.348;9.648;2023-03-07T16:54:26;21.23;;;8.80;;
18072;SDS011;9161;47.348;9.648;2023-03-07T16:59:31;22.00;;;9.07;;
18072;SDS011;9161;47.348;9.648;2023-03-07T17:04:38;21.90;;;8.33;;
18072;SDS011;9161;47.348;9.648;2023-03-07T17:09:43;18.73;;;9.10;;
18072;SDS011;9161;47.348;9.648;2023-03-07T17:14:47;24.17;;;9.47;;
18072;SDS011;9161;47.348;9.648;2023-03-07T17:19:51;24.30;;;8.77;;
18072;SDS011;9161;47.348;9.648;2023-03-07T17:24:55;19.73;;;9.57;;
18072;SDS011;9161;47.348;9.648;2023-03-07T17:29:58;16.90;;;8.93;;
18072;SDS011;9161;47.348;9.648;2023-03-07T17:35:02;23.33;;;10.87;;
18072;SDS011;9161;47.348;9.648;2023-03-07T17:40:07;28.00;;;12.23;;
18072;SDS011;9161;47.348;9.648;2023-03-07T17:45:12;28.67;;;10.50;;
18072;SDS011;9161;47.348;9.648;2023-03-07T17:50:17;22.60;;;11.00;;
18072;SDS011;9161;47.348;9.648;2023-03-07T17:55:23;23.63;;;11.13;;
18072;SDS011;9161;47.348;9.648;2023-03-07T18:00:26;34.47;;;10.23;;
18072;SDS011;9161;47.348;9.648;2023-03-07T18:05:32;24.30;;;11.50;;
18072;SDS011;9161;47.348;9.648;2023-03-07T18:10:36;26.60;;;12.53;;
18072;SDS011;9161;47.348;9.648;2023-03-07T18:15:43;26.67;;;11.03;;
18072;SDS011;9161;47.348;9.648;2023-03-07T18:20:56;20.30;;;9.83;;
18072;SDS011;9161;47.348;9.648;2023-03-07T18:26:00;20.87;;;10.40;;
18072;SDS011;9161;47.348;9.648;2023-03-07T18:31:06;20.40;;;10.50;;
18072;SDS011;9161;47.348;9.648;2023-03-07T18:36:13;22.47;;;9.83;;
18072;SDS011;9161;47.348;9.648;2023-03-07T18:41:18;24.00;;;11.30;;
18072;SDS011;9161;47.348;9.648;2023-03-07T18:46:23;24.97;;;11.43;;
18072;SDS011;9161;47.348;9.648;2023-03-07T18:51:30;21.50;;;9.37;;
18072;SDS011;9161;47.348;9.648;2023-03-07T18:56:34;24.07;;;10.03;;
18072;SDS011;9161;47.348;9.648;2023-03-07T19:01:39;25.33;;;10.17;;
18072;SDS011;9161;47.348;9.648;2023-03-07T19:06:43;20.73;;;9.43;;
18072;SDS011;9161;47.348;9.648;2023-03-07T19:11:49;20.40;;;9.53;;
18072;SDS011;9161;47.348;9.648;2023-03-07T19:16:53;18.70;;;9.03;;
18072;SDS011;9161;47.348;9.648;2023-03-07T19:21:59;20.27;;;9.50;;
18072;SDS011;9161;47.348;9.648;2023-03-07T19:27:05;21.23;;;9.37;;
18072;SDS011;9161;47.348;9.648;2023-03-07T19:32:09;20.83;;;10.73;;
18072;SDS011;9161;47.348;9.648;2023-03-07T19:37:16;18.33;;;8.63;;
18072;SDS011;9161;47.348;9.648;2023-03-07T19:42:21;21.77;;;9.47;;
18072;SDS011;9161;47.348;9.648;2023-03-07T19:47:25;20.33;;;9.93;;
18072;SDS011;9161;47.348;9.648;2023-03-07T19:52:31;21.97;;;9.27;;
18072;SDS011;9161;47.348;9.648;2023-03-07T19:57:34;23.07;;;10.03;;
18072;SDS011;9161;47.348;9.648;2023-03-07T20:02:45;19.77;;;9.20;;
18072;SDS011;9161;47.348;9.648;2023-03-07T20:07:54;18.60;;;9.10;;
18072;SDS011;9161;47.348;9.648;2023-03-07T20:12:58;22.27;;;9.30;;
18072;SDS011;9161;47.348;9.648;2023-03-07T20:18:05;19.93;;;9.13;;
18072;SDS011;9161;47.348;9.648;2023-03-07T20:23:13;19.27;;;8.10;;
18072;SDS011;9161;47.348;9.648;2023-03-07T20:28:18;27.73;;;10.07;;
18072;SDS011;9161;47.348;9.648;2023-03-07T20:33:23;20.87;;;9.83;;
18072;SDS011;9161;47.348;9.648;2023-03-07T20:38:29;20.90;;;8.90;;
18072;SDS011;9161;47.348;9.648;2023-03-07T20:43:35;19.43;;;8.93;;
18072;SDS011;9161;47.348;9.648;2023-03-07T20:48:41;21.23;;;9.93;;
18072;SDS011;9161;47.348;9.648;2023-03-07T20:53:50;21.60;;;9.63;;
18072;SDS011;9161;47.348;9.648;2023-03-07T20:58:59;24.93;;;10.63;;
18072;SDS011;9161;47.348;9.648;2023-03-07T21:04:05;23.20;;;9.40;;
18072;SDS011;9161;47.348;9.648;2023-03-07T21:09:14;22.37;;;10.20;;
18072;SDS011;9161;47.348;9.648;2023-03-07T21:14:20;20.97;;;9.73;;
18072;SDS011;9161;47.348;9.648;2023-03-07T21:19:26;19.93;;;8.60;;
18072;SDS011;9161;47.348;9.648;2023-03-07T21:24:39;20.87;;;8.50;;
18072;SDS011;9161;47.348;9.648;2023-03-07T21:29:43;18.87;;;9.03;;
18072;SDS011;9161;47.348;9.648;2023-03-07T21:34:46;19.23;;;9.20;;
18072;SDS011;9161;47.348;9.648;2023-03-07T21:39:52;22.17;;;9.10;;
18072;SDS011;9161;47.348;9.648;2023-03-07T21:44:55;18.50;;;8.93;;
18072;SDS011;9161;47.348;9.648;2023-03-07T21:49:58;21.07;;;9.30;;
18072;SDS011;9161;47.348;9.648;2023-03-07T21:55:03;22.20;;;9.23;;
18072;SDS011;9161;47.348;9.648;2023-03-07T22:00:06;23.17;;;9.93;;
18072;SDS011;9161;47.348;9.648;2023-03-07T22:05:11;20.47;;;9.47;;
18072;SDS011;9161;47.348;9.648;2023-03-07T22:10:16;19.30;;;8.57;;
18072;SDS011;9161;47.348;9.648;2023-03-07T22:15:19;21.67;;;9.20;;
18072;SDS011;9161;47.348;9.648;2023-03-07T22:20:21;21.93;;;9.43;;
18072;SDS011;9161;47.348;9.648;2023-03-07T22:25:25;21.67;;;9.27;;
18072;SDS011;9161;47.348;9.648;2023-03-07T22:30:27;20.67;;;9.67;;
18072;SDS011;9161;47.348;9.648;2023-03-07T22:35:29;20.97;;;9.47;;
18072;SDS011;9161;47.348;9.648;2023-03-07T22:40:36;18.77;;;9.13;;
18072;SDS011;9161;47.348;9.648;2023-03-07T22:45:38;24.60;;;10.07;;
18072;SDS011;9161;47.348;9.648;2023-03-07T22:50:40;20.30;;;9.27;;
18072;SDS011;9161;47.348;9.648;2023-03-07T22:55:44;21.23;;;9.63;;
18072;SDS011;9161;47.348;9.648;2023-03-07T23:00:46;20.83;;;9.37;;
18072;SDS011;9161;47.348;9.648;2023-03-07T23:05:48;20.03;;;9.40;;
18072;SDS011;9161;47.348;9.648;2023-03-07T23:10:53;21.73;;;9.77;;
18072;SDS011;9161;47.348;9.648;2023-03-07T23:16:02;23.80;;;10.30;;
18072;SDS011;9161;47.348;9.648;2023-03-07T23:21:10;22.37;;;9.27;;
18072;SDS011;9161;47.348;9.648;2023-03-07T23:26:18;20.57;;;10.10;;
18072;SDS011;9161;47.348;9.648;2023-03-07T23:31:22;22.40;;;10.07;;
18072;SDS011;9161;47.348;9.648;2023-03-07T23:36:27;25.27;;;9.67;;
18072;SDS011;9161;47.348;9.648;2023-03-07T23:41:34;19.23;;;9.10;;
18072;SDS011;9161;47.348;9.648;2023-03-07T23:46:37;27.53;;;11.20;;
18072;SDS011;9161;47.348;9.648;2023-03-07T23:51:39;21.93;;;9.37;;
18072;SDS011;9161;47.348;9.648;2023-03-07T23:56:45;20.40;;;9.57;;
